Latest Weather Observations for Gold Coast Seaway

IDQ60801

Issued at 10:32 pm EST Sunday 24 July 2016 (issued every 30 minutes, with the page automatically refreshed every 10 minutes)

About weather observations | Map of weather stations | Latest weather observations for QLD | Other Formats
Station Details ID: 040764 Name: GOLD COAST SEAWAY Lat: -27.94 Lon: 153.43 Height: 2.98 m
Data from the previous 72 hours. | See also: Recent months at Gold Coast Seaway
Date/Time
EST
Temp
°C
App
Temp
°C
Dew
Point
°C
Rel
Hum
%
Delta-T
°C
Wind Press
QNH
hPa
Press
MSL
hPa
Rain since
9am
mm
Dir  Spd
km/h
Gust
km/h
Spd
kts
Gust
kts
24/10:30pm 14.1 12.6 10.7 80 1.8 W 9 11 5 6 1015.3 1015.3 0.0
24/10:00pm 15.0 13.2 10.8 76 2.2 WNW 11 13 6 7 1015.1 1015.1 0.0
24/09:30pm 15.1 13.0 11.1 77 2.1 W 13 15 7 8 1015.0 1015.0 0.0
24/09:00pm 14.5 13.1 10.9 79 1.9 WNW 9 11 5 6 1014.5 1014.5 0.0
24/08:30pm 14.6 13.2 11.0 79 1.9 WNW 9 11 5 6 1014.8 1014.8 0.0
24/08:00pm 14.9 13.6 11.3 79 1.9 WNW 9 11 5 6 1014.9 1014.9 0.0
24/07:30pm 14.9 13.9 11.1 78 2.0 WNW 7 9 4 5 1014.7 1014.7 0.0
24/07:00pm 14.9 13.8 10.7 76 2.2 WNW 7 9 4 5 1014.5 1014.5 0.0
24/06:30pm 16.2 14.9 11.2 72 2.7 NW 9 11 5 6 1014.4 1014.4 0.0
24/06:00pm 17.0 15.7 11.3 69 3.1 N 9 11 5 6 1013.9 1013.9 0.0
24/05:30pm 17.2 14.5 10.3 64 3.7 NNE 15 19 8 10 1013.5 1013.5 0.0
24/05:00pm 17.9 15.1 10.0 60 4.2 NNE 15 17 8 9 1013.3 1013.3 0.0
24/04:30pm 18.9 15.6 9.7 55 4.9 NNE 17 20 9 11 1013.1 1013.1 0.0
24/04:00pm 19.1 15.8 9.6 54 5.0 NE 17 20 9 11 1012.9 1012.9 0.0
24/03:30pm 19.2 15.8 9.1 52 5.3 NE 17 19 9 10 1013.0 1013.0 0.0
24/03:00pm 19.6 16.2 9.2 51 5.5 ENE 17 20 9 11 1013.2 1013.2 0.0
24/02:30pm 19.7 16.5 8.4 48 5.9 ENE 15 17 8 9 1013.4 1013.4 0.0
24/02:00pm 19.8 16.9 6.5 42 6.7 ENE 11 13 6 7 1014.0 1014.0 0.0
24/01:30pm 20.1 17.0 5.4 38 7.2 ENE 11 13 6 7 1014.5 1014.5 0.0
24/01:00pm 19.8 17.0 5.1 38 7.2 ESE 9 11 5 6 1014.9 1014.9 0.0
24/12:30pm 19.6 16.9 3.7 35 7.5 SE 7 9 4 5 1015.2 1015.2 0.0
24/12:00pm 19.9 17.2 2.7 32 8.0 E 6 9 3 5 1015.7 1015.7 0.0
24/11:30am 20.0 17.3 3.7 34 7.7 SE 7 11 4 6 1016.2 1016.2 0.0
24/11:00am 19.6 16.4 3.3 34 7.6 ESE 9 13 5 7 1016.7 1016.7 0.0
24/10:30am 20.5 16.5 2.8 31 8.3 SE 13 15 7 8 1016.9 1016.9 0.0
24/10:00am 19.9 15.3 1.4 29 8.4 SE 15 19 8 10 1017.2 1017.2 0.0
24/09:30am 20.0 16.0 2.8 32 8.0 SE 13 17 7 9 1017.0 1017.0 0.0
24/09:00am 18.9 17.8 6.7 45 6.1 SW 2 7 1 4 1016.7 1016.7 0.0
24/08:30am 18.2 17.1 5.1 42 6.3 CALM 0 0 0 0 1016.6 1016.6 0.0
24/08:00am 15.2 13.0 6.0 54 4.4 SW 7 9 4 5 1016.3 1016.3 0.0
24/07:30am 14.8 11.9 4.8 51 4.7 WSW 9 11 5 6 1016.3 1016.3 0.0
24/07:00am 13.7 10.7 4.3 53 4.3 SW 9 11 5 6 1015.7 1015.7 0.0
24/06:30am 13.3 10.8 4.5 55 4.0 SW 7 9 4 5 1015.3 1015.3 0.0
24/06:00am 14.2 11.2 3.9 50 4.7 WSW 9 11 5 6 1015.0 1015.0 0.0
24/05:30am 13.8 11.1 3.6 50 4.6 W 7 11 4 6 1014.0 1014.0 0.0
24/05:00am 14.7 11.1 3.2 46 5.2 W 11 13 6 7 1013.6 1013.6 0.0
24/04:30am 14.8 11.9 2.4 43 5.5 WNW 7 9 4 5 1013.6 1013.6 0.0
24/04:00am 15.9 12.1 2.0 39 6.2 W 11 13 6 7 1013.8 1013.8 0.0
24/03:30am 16.3 12.2 2.0 38 6.4 W 13 15 7 8 1013.7 1013.7 0.0
24/03:00am 16.3 12.6 2.3 39 6.3 WSW 11 15 6 8 1013.5 1013.5 0.0
24/02:30am 16.5 13.2 2.5 39 6.3 SW 9 17 5 9 1013.5 1013.5 0.0
24/02:00am 16.7 12.4 3.4 41 6.1 W 15 26 8 14 1013.0 1013.0 0.0
24/01:30am 16.4 13.2 5.1 47 5.4 WSW 11 13 6 7 1013.4 1013.4 0.0
24/01:00am 15.6 12.6 4.3 47 5.3 SW 9 13 5 7 1013.3 1013.3 0.0
24/12:30am 15.4 12.4 3.9 46 5.3 SSW 9 11 5 6 1013.3 1013.3 0.0
24/12:00am 16.6 13.1 3.7 42 6.0 WSW 11 17 6 9 1012.9 1012.9 0.0
 
Date/Time
EST
Temp
°C
App
Temp
°C
Dew
Point
°C
Rel
Hum
%
Delta-T
°C
Wind Press
QNH
hPa
Press
MSL
hPa
Rain since
9am
mm
Dir  Spd
km/h
Gust
km/h
Spd
kts
Gust
kts
23/11:30pm 17.3 14.0 2.5 37 6.7 WSW 9 17 5 9 1012.8 1012.8 0.0
23/11:00pm 19.1 16.2 2.5 33 7.7 SW 7 15 4 8 1012.4 1012.4 0.0
23/10:30pm 18.7 14.7 2.9 35 7.3 W 13 19 7 10 1012.2 1012.2 0.0
23/10:00pm 20.0 13.1 2.8 32 8.0 W 28 33 15 18 1011.6 1011.6 0.0
23/09:30pm 20.4 16.3 2.3 30 8.4 WSW 13 19 7 10 1012.1 1012.1 0.0
23/09:00pm 21.1 15.9 2.4 29 8.7 W 19 28 10 15 1011.7 1011.7 0.0
23/08:30pm 21.8 17.0 2.5 28 9.1 W 17 26 9 14 1011.5 1011.5 0.0
23/08:00pm 22.4 18.1 3.5 29 9.1 WSW 15 30 8 16 1011.1 1011.1 0.0
23/07:30pm 22.7 17.0 4.7 31 8.9 W 24 35 13 19 1010.2 1010.2 0.0
23/07:00pm 23.5 19.1 7.2 35 8.5 W 20 30 11 16 1009.9 1009.9 0.0
23/06:30pm 24.2 17.4 7.8 35 8.7 WNW 33 43 18 23 1008.9 1008.9 0.0
23/06:00pm 24.7 18.6 8.2 35 8.8 WNW 30 35 16 19 1008.5 1008.5 0.0
23/05:30pm 25.5 19.0 8.9 35 9.0 WNW 33 41 18 22 1008.1 1008.1 0.0
23/05:00pm 26.3 19.9 9.2 34 9.4 WNW 33 41 18 22 1007.6 1007.6 0.0
23/04:30pm 27.3 20.2 9.6 33 9.8 WNW 37 46 20 25 1007.3 1007.3 0.0
23/04:00pm 27.9 20.1 9.7 32 10.2 WNW 41 54 22 29 1006.9 1006.9 0.0
23/03:41pm 28.1 22.4 11.2 35 9.7 W 32 50 17 27 1006.7 1006.7 0.0
23/03:30pm 28.0 21.8 11.5 35 9.5 WNW 35 50 19 27 1006.6 1006.6 0.0
23/03:00pm 28.0 22.2 10.7 34 9.8 W 32 46 17 25 1006.5 1006.5 0.0
23/02:30pm 28.6 21.8 10.8 33 10.1 W 37 50 20 27 1006.1 1006.1 0.0
23/02:13pm 28.6 22.2 10.8 33 10.1 WNW 35 54 19 29 1006.1 1006.1 0.0
23/02:00pm 28.7 23.3 12.2 36 9.6 WNW 32 48 17 26 1006.2 1006.2 0.0
23/01:30pm 28.2 22.2 12.1 37 9.3 WNW 35 48 19 26 1006.2 1006.2 0.0
23/01:28pm 28.2 22.2 12.1 37 9.3 WNW 35 46 19 25 1006.2 1006.2 0.0
23/01:00pm 28.3 22.3 13.4 40 8.8 WNW 37 48 20 26 1006.3 1006.3 0.0
23/12:30pm 28.3 22.6 13.0 39 9.0 W 35 44 19 24 1006.5 1006.5 0.0
23/12:00pm 28.1 21.1 12.5 38 9.1 W 41 52 22 28 1006.8 1006.8 0.0
23/11:42am 28.0 23.0 13.5 41 8.6 WNW 32 50 17 27 1006.9 1006.9 0.0
23/11:30am 27.3 22.4 15.3 48 7.3 WNW 35 44 19 24 1007.0 1007.0 0.0
23/11:00am 26.7 23.3 17.8 58 5.6 WNW 32 44 17 24 1007.3 1007.3 0.0
23/10:50am 26.4 24.0 18.3 61 5.1 WNW 28 48 15 26 1007.6 1007.6 0.0
23/10:30am 26.2 22.5 17.0 57 5.7 NW 32 41 17 22 1007.8 1007.8 0.0
23/10:00am 24.9 21.6 17.9 65 4.4 NW 32 39 17 21 1008.0 1008.0 0.0
23/09:30am 24.0 20.7 18.4 71 3.5 NW 33 41 18 22 1008.1 1008.1 0.0
23/09:00am 23.5 21.8 18.2 72 3.3 NW 24 33 13 18 1008.4 1008.4 0.0
23/08:30am 22.4 23.0 18.6 79 2.4 NNW 13 22 7 12 1008.6 1008.6 0.0
23/08:00am 20.6 20.3 19.6 94 0.6 N 20 26 11 14 1008.7 1008.7 0.0
23/07:30am 19.9 20.2 19.7 99 0.1 N 17 20 9 11 1008.9 1008.9 0.0
23/07:00am 18.8 18.7 18.8 100 0.0 NNE 17 22 9 12 1008.7 1008.7 0.0
23/06:30am 18.3 18.0 18.3 100 0.0 NE 17 22 9 12 1008.5 1008.5 0.0
23/06:00am 18.3 18.0 18.3 100 0.0 NNE 17 20 9 11 1008.3 1008.3 0.0
23/05:30am 18.6 18.8 18.6 100 0.0 NE 15 19 8 10 1008.2 1008.2 0.0
23/05:00am 18.5 18.7 18.5 100 0.0 NNE 15 19 8 10 1008.4 1008.4 0.0
23/04:30am 18.6 18.4 18.6 100 0.0 NNE 17 19 9 10 1008.2 1008.2 0.0
23/04:00am 18.9 19.3 18.9 100 0.0 N 15 19 8 10 1008.2 1008.2 0.0
23/03:30am 19.0 19.0 19.0 100 0.0 N 17 19 9 10 1008.4 1008.4 0.0
23/03:00am 18.8 19.1 18.8 100 0.0 N 15 19 8 10 1008.7 1008.7 0.0
23/02:30am 18.7 19.0 18.7 100 0.0 NNW 15 19 8 10 1008.9 1008.9 0.0
23/02:00am 18.9 19.3 18.9 100 0.0 NNW 15 19 8 10 1009.2 1009.2 0.0
23/01:30am 19.3 19.1 19.3 100 0.0 NW 19 24 10 13 1009.5 1009.5 0.0
23/01:00am 19.4 19.0 19.4 100 0.0 NNW 20 28 11 15 1009.7 1009.7 0.0
23/12:30am 19.4 19.2 19.4 100 0.0 NNW 19 24 10 13 1009.7 1009.7 0.0
23/12:00am 19.4 19.9 19.2 99 0.1 NNW 15 20 8 11 1010.0 1010.0 0.0
 
Date/Time
EST
Temp
°C
App
Temp
°C
Dew
Point
°C
Rel
Hum
%
Delta-T
°C
Wind Press
QNH
hPa
Press
MSL
hPa
Rain since
9am
mm
Dir  Spd
km/h
Gust
km/h
Spd
kts
Gust
kts
22/11:30pm 19.6 20.2 19.4 99 0.1 NW 15 20 8 11 1010.4 1010.4 0.0
22/11:00pm 19.9 20.2 19.7 99 0.1 NW 17 24 9 13 1010.6 1010.6 0.0
22/10:30pm 20.1 20.3 19.3 95 0.5 NNW 17 24 9 13 1010.9 1010.9 0.0
22/10:00pm 20.4 19.9 19.2 93 0.8 NNW 20 28 11 15 1011.1 1011.1 0.0
22/09:30pm 20.6 19.8 19.3 92 0.8 NNW 22 32 12 17 1011.0 1011.0 0.0
22/09:00pm 20.6 21.0 19.1 91 0.9 NNW 15 22 8 12 1011.2 1011.2 0.0
22/08:30pm 20.5 21.1 18.6 89 1.2 NNW 13 19 7 10 1011.2 1011.2 0.0
22/08:00pm 20.4 20.5 18.3 88 1.3 NNW 15 20 8 11 1011.3 1011.3 0.0
22/07:30pm 20.5 20.6 18.3 87 1.4 NNW 15 24 8 13 1011.5 1011.5 0.0
22/07:00pm 20.8 21.4 18.6 87 1.4 NW 13 17 7 9 1011.4 1011.4 0.0
22/06:30pm 21.1 21.8 18.9 87 1.4 NW 13 17 7 9 1011.2 1011.2 0.0
22/06:00pm 21.3 22.6 18.5 84 1.8 N 9 11 5 6 1011.1 1011.1 0.0
22/05:30pm 21.9 22.0 18.3 80 2.2 NNW 15 22 8 12 1010.7 1010.7 0.0
22/05:00pm 22.5 23.0 18.3 77 2.6 N 13 17 7 9 1010.4 1010.4 0.0
22/04:30pm 23.1 23.7 18.6 76 2.8 N 13 17 7 9 1010.3 1010.3 0.0
22/04:00pm 23.5 23.5 18.2 72 3.3 N 15 19 8 10 1010.3 1010.3 0.0
22/03:30pm 23.9 22.9 17.6 68 3.9 N 19 24 10 13 1010.4 1010.4 0.0
22/03:00pm 24.7 23.3 17.9 66 4.3 N 22 26 12 14 1010.4 1010.4 0.0
22/02:30pm 24.6 23.3 18.1 67 4.1 N 22 26 12 14 1010.6 1010.6 0.0
22/02:00pm 26.5 26.0 17.8 58 5.5 NW 17 22 9 12 1010.9 1010.9 0.0
22/01:30pm 26.3 26.0 18.2 61 5.1 NW 17 28 9 15 1011.2 1011.2 0.0
22/01:00pm 25.8 25.4 18.0 62 4.9 NNW 17 22 9 12 1011.8 1011.8 0.0
22/12:30pm 25.4 25.0 18.1 64 4.6 NNW 17 24 9 13 1012.4 1012.4 0.0
22/12:00pm 24.9 24.1 17.1 62 4.8 NW 17 22 9 12 1013.1 1013.1 0.0
22/11:30am 24.8 24.2 17.5 64 4.6 NW 17 20 9 11 1013.9 1013.9 0.0
22/11:00am 24.7 24.5 18.6 69 3.9 N 17 20 9 11 1014.5 1014.5 0.0
22/10:30am 23.9 24.0 18.3 71 3.5 NNW 15 19 8 10 1014.9 1014.9 0.0
22/10:00am 22.7 22.9 17.6 73 3.2 N 13 15 7 8 1015.2 1015.2 0.0
22/09:30am 22.2 23.1 18.4 79 2.4 N 11 13 6 7 1015.5 1015.5 0.0
22/09:00am 21.0 22.1 18.8 87 1.4 N 11 13 6 7 1015.7 1015.7 0.0
22/08:30am 19.4 21.0 18.2 93 0.7 WNW 7 11 4 6 1015.7 1015.7 0.0
22/08:00am 18.5 20.1 18.3 99 0.1 WNW 7 9 4 5 1015.7 1015.7 0.0
22/07:30am 17.8 18.8 17.8 100 0.0 WNW 9 11 5 6 1015.5 1015.5 0.0
22/07:00am 17.3 18.1 17.3 100 0.0 WNW 9 11 5 6 1015.6 1015.6 0.0
22/06:30am 17.1 17.8 17.1 100 0.0 WNW 9 11 5 6 1015.5 1015.5 0.0
22/06:00am 17.4 17.9 17.4 100 0.0 W 11 13 6 7 1015.2 1015.2 0.0
22/05:30am 17.4 18.2 17.4 100 0.0 WSW 9 9 5 5 1014.9 1014.9 0.0
22/05:00am 17.2 18.0 17.2 100 0.0 WSW 9 9 5 5 1014.8 1014.8 0.0
22/04:30am 17.5 18.4 17.5 100 0.0 SW 9 11 5 6 1014.9 1014.9 0.0
22/04:00am 17.1 18.3 16.9 99 0.1 SSW 6 7 3 4 1015.0 1015.0 0.0
22/03:30am 17.9 19.4 17.7 99 0.1 SSW 6 7 3 4 1015.5 1015.5 0.0
22/03:00am 17.8 18.7 17.6 99 0.1 SSW 9 9 5 5 1015.9 1015.9 0.0
22/02:30am 18.1 19.2 17.9 99 0.1 SW 9 11 5 6 1015.8 1015.8 0.0
22/02:00am 18.2 19.6 17.9 98 0.2 SSW 7 9 4 5 1015.8 1015.8 0.0
22/01:30am 18.9 20.5 18.2 96 0.4 SSW 7 7 4 4 1016.1 1016.1 0.0
22/01:00am 19.3 22.3 18.5 95 0.5 CALM 0 0 0 0 1016.5 1016.5 0.0
22/12:30am 19.3 21.0 18.6 96 0.4 S 7 9 4 5 1016.8 1016.8 0.0
22/12:00am 19.3 20.8 19.0 98 0.2 SSW 9 11 5 6 1017.1 1017.1 0.0
 
Date/Time
EST
Temp
°C
App
Temp
°C
Dew
Point
°C
Rel
Hum
%
Delta-T
°C
Wind Press
QNH
hPa
Press
MSL
hPa
Rain since
9am
mm
Dir  Spd
km/h
Gust
km/h
Spd
kts
Gust
kts
21/11:30pm 19.3 20.9 19.1 99 0.1 S 9 11 5 6 1017.2 1017.2 0.0
21/11:00pm 19.3 21.5 19.1 99 0.1 SSW 6 7 3 4 1017.2 1017.2 0.0

Other Formats:

Comma delimited format used in spreadsheet applications
http://www.bom.gov.au/fwo/IDQ60801/IDQ60801.94580.axf

JavaScript Object Notation format (JSON) in row-major order
http://www.bom.gov.au/fwo/IDQ60801/IDQ60801.94580.json